Time;durP1;ratioP1;P1;durP2;ratioP2;P2;SDS_P1;SDS_P2;PMS_P1;PMS_P2;Temp;Humidity;BMP_temperature;BMP_pressure;BME280_temperature;BME280_humidity;BME280_pressure;Samples;Min_cycle;Max_cycle;Signal;HPM_P1;HPM_P2
2021/08/16 00:00:10;;;;;;;11.45;3.22;;;23.40;76.10;;;;;;4262608;27;20070;-69
2021/08/16 00:02:13;;;;;;;10.98;3.65;;;23.50;75.70;;;;;;4262860;27;20050;-69
2021/08/16 00:04:16;;;;;;;15.75;3.53;;;23.50;75.30;;;;;;4262273;27;20103;-69
2021/08/16 00:06:19;;;;;;;14.68;3.70;;;23.30;75.10;;;;;;4262766;27;20055;-69
2021/08/16 00:08:22;;;;;;;12.75;3.42;;;23.30;74.70;;;;;;4262766;27;20118;-69
2021/08/16 00:10:25;;;;;;;16.25;3.28;;;23.30;74.40;;;;;;4262781;27;20058;-69
2021/08/16 00:12:29;;;;;;;14.48;3.60;;;23.30;74.20;;;;;;4262856;27;20697;-69
2021/08/16 00:14:32;;;;;;;7.57;3.08;;;23.30;73.60;;;;;;4262740;27;20562;-69
2021/08/16 00:16:36;;;;;;;12.02;3.40;;;23.20;73.60;;;;;;4262543;27;20050;-70
2021/08/16 00:18:39;;;;;;;12.70;4.38;;;23.20;73.40;;;;;;4262880;27;20051;-69
2021/08/16 00:20:42;;;;;;;13.93;3.30;;;23.30;73.20;;;;;;4262586;27;20110;-69
2021/08/16 00:22:45;;;;;;;14.32;3.80;;;23.20;73.10;;;;;;4262613;27;20047;-69
2021/08/16 00:24:49;;;;;;;10.07;3.05;;;23.30;72.90;;;;;;4262637;27;20050;-69
2021/08/16 00:26:53;;;;;;;10.10;3.35;;;23.30;72.90;;;;;;4262420;27;20047;-69
2021/08/16 00:28:59;;;;;;;11.15;3.45;;;23.20;73.50;;;;;;4262804;27;20047;-69
2021/08/16 00:31:02;;;;;;;16.25;3.40;;;23.30;73.40;;;;;;4262528;27;20068;-69
2021/08/16 00:33:07;;;;;;;12.85;3.45;;;23.30;73.20;;;;;;4262428;27;20111;-69
2021/08/16 00:35:10;;;;;;;15.50;3.90;;;23.30;73.40;;;;;;4262570;27;20051;-69
2021/08/16 00:37:13;;;;;;;11.65;3.30;;;23.20;73.40;;;;;;4262632;27;20065;-70
2021/08/16 00:39:16;;;;;;;10.13;3.15;;;23.20;73.10;;;;;;4264954;27;20055;-70
2021/08/16 00:41:19;;;;;;;11.70;3.42;;;23.10;73.10;;;;;;4265656;27;20054;-69
2021/08/16 00:43:22;;;;;;;17.15;3.95;;;23.10;73.80;;;;;;4265624;27;20057;-69
2021/08/16 00:45:27;;;;;;;12.88;3.75;;;23.20;73.80;;;;;;4265333;27;20050;-69
2021/08/16 00:47:30;;;;;;;10.20;2.90;;;23.20;73.50;;;;;;4247416;27;20190;-69
2021/08/16 00:49:35;;;;;;;13.13;3.60;;;23.20;73.00;;;;;;4265596;27;20474;-69
2021/08/16 00:51:38;;;;;;;13.40;3.50;;;23.10;73.40;;;;;;4264969;27;20403;-69
2021/08/16 00:53:41;;;;;;;9.82;3.05;;;23.10;73.00;;;;;;4265246;27;20103;-69
2021/08/16 00:55:44;;;;;;;11.93;3.40;;;23.20;73.10;;;;;;4247052;27;20516;-69
2021/08/16 00:57:47;;;;;;;11.30;3.28;;;23.10;72.80;;;;;;4265318;27;20054;-69
2021/08/16 00:59:51;;;;;;;13.57;3.77;;;23.20;73.20;;;;;;4265293;27;20061;-69
2021/08/16 01:01:54;;;;;;;18.05;3.47;;;23.10;73.60;;;;;;4265310;27;20058;-69
2021/08/16 01:03:58;;;;;;;19.38;4.00;;;23.10;73.30;;;;;;4264993;27;20055;-69
2021/08/16 01:06:04;;;;;;;14.13;3.60;;;23.10;73.00;;;;;;4265515;27;20055;-69
2021/08/16 01:08:07;;;;;;;11.30;3.55;;;23.00;73.20;;;;;;4265202;27;20654;-68
2021/08/16 01:10:11;;;;;;;15.35;3.83;;;23.00;73.50;;;;;;4265153;27;20113;-68
2021/08/16 01:12:14;;;;;;;17.95;3.85;;;23.10;73.10;;;;;;4265117;27;20046;-68
2021/08/16 01:14:18;;;;;;;15.27;3.65;;;23.00;73.50;;;;;;4264897;27;20046;-69
2021/08/16 01:16:21;;;;;;;13.15;3.65;;;23.00;73.30;;;;;;4265210;27;20483;-68
2021/08/16 01:18:26;;;;;;;15.32;3.50;;;23.00;72.80;;;;;;4265103;27;20138;-69
2021/08/16 01:20:29;;;;;;;16.65;4.00;;;23.10;73.30;;;;;;4265005;27;20084;-68
2021/08/16 01:22:34;;;;;;;21.75;4.47;;;23.10;73.40;;;;;;4264924;27;20137;-69
2021/08/16 01:24:38;;;;;;;11.65;2.97;;;23.10;73.20;;;;;;4264774;27;20047;-68
2021/08/16 01:26:42;;;;;;;15.70;3.05;;;23.00;73.20;;;;;;4264698;27;20100;-68
2021/08/16 01:28:45;;;;;;;13.80;3.70;;;23.00;73.10;;;;;;4264920;27;20055;-68
2021/08/16 01:30:50;;;;;;;12.85;3.50;;;23.00;72.90;;;;;;4265008;27;20051;-68
2021/08/16 01:32:54;;;;;;;14.10;3.85;;;23.00;72.80;;;;;;4264908;27;20051;-68
2021/08/16 01:34:57;;;;;;;9.82;2.83;;;23.00;72.60;;;;;;4264757;27;20057;-68
2021/08/16 01:37:00;;;;;;;9.68;3.10;;;23.10;72.40;;;;;;4264587;27;20072;-68
2021/08/16 01:39:03;;;;;;;12.90;3.33;;;23.10;72.60;;;;;;4246181;27;20055;-68
2021/08/16 01:41:07;;;;;;;14.43;3.60;;;23.00;72.70;;;;;;4264273;27;20054;-68
2021/08/16 01:43:11;;;;;;;10.55;2.80;;;22.90;73.10;;;;;;4264498;27;20051;-68
2021/08/16 01:45:14;;;;;;;12.32;3.60;;;22.90;73.40;;;;;;4264554;27;20050;-68
2021/08/16 01:47:17;;;;;;;13.93;3.17;;;22.90;73.20;;;;;;4264526;27;20107;-69
2021/08/16 01:49:20;;;;;;;9.45;3.13;;;22.90;73.50;;;;;;4263952;27;20055;-68
2021/08/16 01:51:23;;;;;;;8.98;3.00;;;22.70;73.90;;;;;;4264108;27;20505;-68
2021/08/16 01:53:27;;;;;;;14.55;3.22;;;22.60;74.00;;;;;;4264004;27;20553;-68
2021/08/16 01:55:30;;;;;;;15.60;3.08;;;22.50;74.10;;;;;;4264128;27;20078;-70
2021/08/16 01:57:33;;;;;;;11.90;3.33;;;22.50;74.30;;;;;;4264421;27;20079;-68
2021/08/16 01:59:37;;;;;;;11.32;3.45;;;22.60;74.20;;;;;;4264604;27;20111;-69
2021/08/16 02:01:40;;;;;;;11.57;3.30;;;22.70;73.80;;;;;;4264388;27;20050;-70
2021/08/16 02:03:43;;;;;;;13.23;3.45;;;22.70;74.10;;;;;;4264216;27;20073;-69
2021/08/16 02:05:46;;;;;;;13.32;3.13;;;22.60;73.90;;;;;;4264378;27;20464;-69
2021/08/16 02:07:49;;;;;;;13.50;3.38;;;22.70;74.00;;;;;;4264477;27;20054;-68
2021/08/16 02:09:53;;;;;;;12.30;3.08;;;22.70;74.20;;;;;;4264094;27;20054;-69
2021/08/16 02:11:56;;;;;;;13.85;3.35;;;22.70;73.80;;;;;;4264205;27;20115;-68
2021/08/16 02:13:59;;;;;;;8.43;2.90;;;22.50;74.60;;;;;;4264019;27;20054;-68
2021/08/16 02:16:05;;;;;;;15.52;3.97;;;22.60;74.40;;;;;;4263955;27;20130;-68
2021/08/16 02:18:08;;;;;;;9.35;3.40;;;22.60;75.10;;;;;;4264105;27;20136;-68
2021/08/16 02:20:12;;;;;;;15.55;3.75;;;22.50;75.00;;;;;;4264130;27;20047;-68
2021/08/16 02:22:15;;;;;;;16.58;3.20;;;22.60;75.00;;;;;;4263856;27;20083;-69
2021/08/16 02:24:18;;;;;;;12.13;3.35;;;22.40;75.00;;;;;;4264195;27;20042;-68
2021/08/16 02:26:21;;;;;;;14.75;3.70;;;22.40;75.10;;;;;;4263890;27;20058;-69
2021/08/16 02:28:24;;;;;;;15.85;3.67;;;22.50;75.00;;;;;;4263921;27;20692;-68
2021/08/16 02:30:27;;;;;;;12.75;3.65;;;22.50;74.70;;;;;;4263951;27;20147;-68
2021/08/16 02:32:32;;;;;;;16.02;3.67;;;22.50;75.00;;;;;;4263829;27;20059;-68
2021/08/16 02:34:35;;;;;;;13.52;3.65;;;22.50;75.00;;;;;;4263577;27;20490;-68
2021/08/16 02:36:38;;;;;;;12.70;3.15;;;22.50;74.90;;;;;;4263633;27;20107;-68
2021/08/16 02:38:41;;;;;;;12.20;3.15;;;22.50;75.00;;;;;;4263670;27;20088;-68
2021/08/16 02:40:44;;;;;;;16.92;3.75;;;22.50;74.70;;;;;;4263799;27;20055;-68
2021/08/16 02:42:47;;;;;;;15.93;3.63;;;22.50;75.30;;;;;;4263661;27;20057;-68
2021/08/16 02:44:50;;;;;;;17.58;3.22;;;22.40;75.40;;;;;;4245031;27;20066;-69
2021/08/16 02:46:53;;;;;;;14.27;3.58;;;22.50;75.50;;;;;;4263813;27;20058;-68
2021/08/16 02:48:58;;;;;;;11.50;3.28;;;22.30;75.60;;;;;;4263447;27;20053;-69
2021/08/16 02:51:01;;;;;;;12.07;3.20;;;22.40;75.80;;;;;;4263239;27;20047;-68
2021/08/16 02:53:04;;;;;;;12.13;3.58;;;22.40;75.40;;;;;;4263669;27;20050;-68
2021/08/16 02:55:08;;;;;;;14.88;3.45;;;22.40;75.50;;;;;;4263177;27;20054;-68
2021/08/16 02:57:14;;;;;;;13.77;3.30;;;22.20;76.20;;;;;;4263535;27;20065;-68
2021/08/16 02:59:17;;;;;;;10.00;3.17;;;22.20;77.00;;;;;;4263611;27;20053;-68
2021/08/16 03:01:20;;;;;;;12.20;3.42;;;22.20;76.40;;;;;;4262956;27;20059;-68
2021/08/16 03:03:23;;;;;;;14.73;3.65;;;22.30;76.40;;;;;;4263184;27;20455;-68
2021/08/16 03:05:28;;;;;;;11.02;3.25;;;22.30;76.40;;;;;;4263242;27;20047;-69
2021/08/16 03:07:31;;;;;;;14.55;3.05;;;22.40;76.00;;;;;;4263253;27;20085;-69
2021/08/16 03:09:34;;;;;;;15.93;3.15;;;22.40;76.10;;;;;;4263592;27;20062;-68
2021/08/16 03:11:37;;;;;;;10.68;2.90;;;22.40;75.80;;;;;;4263641;27;20057;-68
2021/08/16 03:13:40;;;;;;;12.95;3.20;;;22.40;76.30;;;;;;4263292;27;20057;-68
2021/08/16 03:15:43;;;;;;;13.60;3.13;;;22.30;76.30;;;;;;4263103;27;20111;-68
2021/08/16 03:17:47;;;;;;;13.20;3.30;;;22.20;76.60;;;;;;4262659;27;20512;-68
2021/08/16 03:19:51;;;;;;;12.25;2.90;;;22.40;76.10;;;;;;4263356;27;20051;-68
2021/08/16 03:21:55;;;;;;;11.80;3.55;;;22.50;75.90;;;;;;4263233;27;20115;-68
2021/08/16 03:23:58;;;;;;;14.02;3.70;;;22.60;75.50;;;;;;4263136;27;20075;-68
2021/08/16 03:26:01;;;;;;;12.68;3.67;;;22.60;75.50;;;;;;4262560;27;20558;-68
2021/08/16 03:28:05;;;;;;;10.80;3.13;;;22.60;75.30;;;;;;4262836;27;20115;-68
2021/08/16 03:30:10;;;;;;;14.95;3.45;;;22.50;76.00;;;;;;4263255;27;20504;-68
2021/08/16 03:32:13;;;;;;;13.65;3.63;;;22.20;76.80;;;;;;4262726;27;20505;-68
2021/08/16 03:34:16;;;;;;;11.60;3.17;;;22.20;77.20;;;;;;4262755;27;20050;-68
2021/08/16 03:36:20;;;;;;;12.52;3.28;;;22.40;76.90;;;;;;4262935;27;20058;-68
2021/08/16 03:38:24;;;;;;;13.93;3.25;;;22.40;76.40;;;;;;4262938;27;20051;-68
2021/08/16 03:40:27;;;;;;;14.25;3.72;;;22.40;76.90;;;;;;4262859;27;20054;-68
2021/08/16 03:42:31;;;;;;;13.43;3.15;;;22.30;77.20;;;;;;4263123;27;20054;-68
2021/08/16 03:44:34;;;;;;;15.43;3.25;;;22.10;77.90;;;;;;4262881;27;20146;-68
2021/08/16 03:46:37;;;;;;;12.70;3.63;;;22.10;77.90;;;;;;4262622;27;20046;-68
2021/08/16 03:48:41;;;;;;;11.63;3.45;;;22.20;77.90;;;;;;4263054;27;20050;-68
2021/08/16 03:50:44;;;;;;;12.85;3.70;;;22.10;78.70;;;;;;4262776;27;20111;-68
2021/08/16 03:52:47;;;;;;;12.48;3.05;;;22.10;78.60;;;;;;4262987;27;20104;-68
2021/08/16 03:54:51;;;;;;;15.68;3.30;;;22.20;78.20;;;;;;4262874;27;20047;-68
2021/08/16 03:56:54;;;;;;;15.60;3.30;;;22.10;78.80;;;;;;4262882;27;20062;-67
2021/08/16 03:58:57;;;;;;;12.90;3.75;;;22.00;79.50;;;;;;4263114;27;20453;-68
2021/08/16 04:01:00;;;;;;;16.92;3.72;;;21.80;80.00;;;;;;4262861;27;20571;-68
2021/08/16 04:03:04;;;;;;;11.07;2.90;;;21.90;79.60;;;;;;4262589;27;20055;-68
2021/08/16 04:05:08;;;;;;;14.02;3.20;;;21.90;79.10;;;;;;4262668;27;20107;-68
2021/08/16 04:07:11;;;;;;;15.63;4.00;;;22.00;78.90;;;;;;4262605;27;20055;-68
2021/08/16 04:09:15;;;;;;;11.75;3.50;;;22.00;79.50;;;;;;4262685;27;20097;-68
2021/08/16 04:11:20;;;;;;;11.38;3.60;;;22.00;79.20;;;;;;4262284;27;20055;-68
2021/08/16 04:13:23;;;;;;;13.43;3.30;;;22.10;78.80;;;;;;4263597;27;20434;-68
2021/08/16 04:15:26;;;;;;;9.38;3.03;;;22.10;78.80;;;;;;4266031;27;20061;-68
2021/08/16 04:17:29;;;;;;;13.75;3.30;;;22.10;78.70;;;;;;4265897;27;20440;-68
2021/08/16 04:19:32;;;;;;;9.65;2.97;;;22.10;78.80;;;;;;4266110;27;20104;-68
2021/08/16 04:21:35;;;;;;;12.57;3.08;;;22.10;78.80;;;;;;4266029;27;20123;-68
2021/08/16 04:23:39;;;;;;;12.40;3.40;;;21.90;79.40;;;;;;4265606;27;20059;-68
2021/08/16 04:25:42;;;;;;;15.95;3.80;;;21.90;79.50;;;;;;4265984;27;20391;-68
2021/08/16 04:27:49;;;;;;;14.40;3.40;;;21.90;79.60;;;;;;4265880;27;20051;-68
2021/08/16 04:29:53;;;;;;;12.20;3.45;;;21.80;79.80;;;;;;4265674;27;20051;-68
2021/08/16 04:31:56;;;;;;;15.75;3.30;;;21.80;79.80;;;;;;4265796;27;20151;-68
2021/08/16 04:33:59;;;;;;;12.07;2.85;;;21.60;80.60;;;;;;4265888;27;20050;-68
2021/08/16 04:36:03;;;;;;;9.48;3.15;;;21.40;81.30;;;;;;4265851;27;20104;-68
2021/08/16 04:38:06;;;;;;;12.05;3.33;;;21.50;81.40;;;;;;4265928;27;20410;-68
2021/08/16 04:40:10;;;;;;;13.07;3.53;;;21.70;80.40;;;;;;4265488;27;20051;-68
2021/08/16 04:42:13;;;;;;;13.82;3.80;;;21.80;79.70;;;;;;4265865;27;20051;-68
2021/08/16 04:44:18;;;;;;;15.20;3.58;;;21.90;79.10;;;;;;4265412;27;20054;-68
2021/08/16 04:46:21;;;;;;;13.50;3.30;;;21.90;79.30;;;;;;4265601;27;20055;-68
2021/08/16 04:48:24;;;;;;;11.05;2.92;;;21.80;79.80;;;;;;4265513;27;20459;-68
2021/08/16 04:50:27;;;;;;;11.05;2.92;;;21.70;79.60;;;;;;4265266;27;20133;-68
2021/08/16 04:52:30;;;;;;;10.52;3.38;;;21.80;79.90;;;;;;4265623;27;20055;-68
2021/08/16 04:54:33;;;;;;;15.45;3.55;;;21.80;80.00;;;;;;4265314;27;20046;-68
2021/08/16 04:56:38;;;;;;;13.60;3.58;;;21.70;79.90;;;;;;4265512;27;20062;-68
2021/08/16 04:58:41;;;;;;;12.60;2.92;;;21.60;80.20;;;;;;4265314;27;20122;-68
2021/08/16 05:00:46;;;;;;;11.73;3.25;;;21.40;80.90;;;;;;4265515;27;20070;-68
2021/08/16 05:02:49;;;;;;;13.63;2.95;;;21.40;81.10;;;;;;4265219;27;20054;-68
2021/08/16 05:04:58;;;;;;;15.30;3.78;;;21.50;80.70;;;;;;4265251;27;20065;-68
2021/08/16 05:07:02;;;;;;;12.30;4.00;;;21.50;80.70;;;;;;4265348;27;20452;-68
2021/08/16 05:09:05;;;;;;;10.02;2.75;;;21.60;80.50;;;;;;4265210;27;20059;-68
2021/08/16 05:11:09;;;;;;;12.00;2.90;;;21.50;80.20;;;;;;4264996;27;20054;-68
2021/08/16 05:13:13;;;;;;;11.00;2.70;;;21.70;80.10;;;;;;4265239;27;20077;-68
2021/08/16 05:15:21;;;;;;;8.88;2.58;;;21.70;79.90;;;;;;4264893;27;20051;-68
2021/08/16 05:17:26;;;;;;;10.53;2.83;;;21.50;80.50;;;;;;4264975;27;20059;-68
2021/08/16 05:19:29;;;;;;;11.52;2.63;;;21.50;80.50;;;;;;4265271;27;20050;-68
2021/08/16 05:21:32;;;;;;;15.35;2.92;;;21.50;80.40;;;;;;4264839;27;20119;-68
2021/08/16 05:23:35;;;;;;;12.40;2.97;;;21.50;80.60;;;;;;4264849;27;20555;-68
2021/08/16 05:25:38;;;;;;;15.20;3.13;;;21.50;80.50;;;;;;4265223;27;20051;-68
2021/08/16 05:27:41;;;;;;;11.05;2.22;;;21.50;80.50;;;;;;4264623;27;20051;-68
2021/08/16 05:29:44;;;;;;;11.23;2.53;;;21.50;80.80;;;;;;4265062;27;20065;-68
2021/08/16 05:31:48;;;;;;;7.80;2.80;;;21.40;80.70;;;;;;4264894;27;20054;-68
2021/08/16 05:33:52;;;;;;;7.45;2.08;;;21.30;81.20;;;;;;4265036;27;20050;-70
2021/08/16 05:35:55;;;;;;;8.57;2.40;;;21.20;82.00;;;;;;4264892;27;20047;-67
2021/08/16 05:37:59;;;;;;;8.95;2.10;;;21.10;82.20;;;;;;4264499;27;20057;-67
2021/08/16 05:40:03;;;;;;;10.38;2.33;;;21.30;81.60;;;;;;4246124;27;20134;-67
2021/08/16 05:42:06;;;;;;;13.68;3.20;;;21.40;81.00;;;;;;4264999;27;20053;-67
2021/08/16 05:44:09;;;;;;;13.88;3.10;;;21.50;80.70;;;;;;4264381;27;20054;-67
2021/08/16 05:46:12;;;;;;;6.97;2.38;;;21.50;81.30;;;;;;4264671;27;20066;-66
2021/08/16 05:48:17;;;;;;;9.30;2.22;;;21.30;81.70;;;;;;4264678;27;20053;-67
2021/08/16 05:50:23;;;;;;;9.48;2.38;;;21.30;81.70;;;;;;4264417;27;20051;-67
2021/08/16 05:52:26;;;;;;;13.98;2.88;;;21.50;81.00;;;;;;4264548;27;20054;-67
2021/08/16 05:54:29;;;;;;;14.50;2.38;;;21.50;80.90;;;;;;4264307;27;20104;-67
2021/08/16 05:56:32;;;;;;;18.35;2.92;;;21.40;81.20;;;;;;4264275;27;20084;-66
2021/08/16 05:58:35;;;;;;;7.45;2.08;;;21.40;81.40;;;;;;4264460;27;20155;-67
2021/08/16 06:00:38;;;;;;;6.80;2.13;;;21.50;81.30;;;;;;4264629;27;20055;-69
2021/08/16 06:02:41;;;;;;;11.15;2.67;;;21.40;81.40;;;;;;4264433;27;20050;-69
2021/08/16 06:04:44;;;;;;;8.73;2.72;;;21.40;81.40;;;;;;4264319;27;20051;-69
2021/08/16 06:06:49;;;;;;;10.85;2.35;;;21.50;81.30;;;;;;4264253;27;20058;-69
2021/08/16 06:08:52;;;;;;;11.35;2.30;;;21.60;80.90;;;;;;4264020;27;20516;-67
2021/08/16 06:10:55;;;;;;;7.45;2.00;;;21.50;81.30;;;;;;4264125;27;20104;-67
2021/08/16 06:12:58;;;;;;;8.60;2.10;;;21.20;82.20;;;;;;4264297;27;20047;-69
2021/08/16 06:15:01;;;;;;;18.27;2.33;;;21.10;83.10;;;;;;4264270;27;20103;-69
2021/08/16 06:17:05;;;;;;;9.73;2.17;;;21.10;83.30;;;;;;4263805;27;20058;-67
2021/08/16 06:19:08;;;;;;;13.45;2.65;;;21.00;83.10;;;;;;4263923;27;20058;-68
2021/08/16 06:21:11;;;;;;;13.63;2.10;;;21.10;83.20;;;;;;4264093;27;20539;-69
2021/08/16 06:23:16;;;;;;;11.45;2.10;;;21.20;83.00;;;;;;4264049;27;20452;-69
2021/08/16 06:25:19;;;;;;;8.40;2.28;;;21.00;83.70;;;;;;4264137;27;20103;-67
2021/08/16 06:27:22;;;;;;;9.45;1.92;;;20.90;84.50;;;;;;4263766;27;20047;-67
2021/08/16 06:29:25;;;;;;;10.95;2.25;;;20.90;84.50;;;;;;4264025;27;20054;-67
2021/08/16 06:31:29;;;;;;;10.85;2.50;;;21.10;84.10;;;;;;4263916;27;20061;-68
2021/08/16 06:33:36;;;;;;;7.90;2.22;;;21.20;84.00;;;;;;4263852;27;20414;-71
2021/08/16 06:35:39;;;;;;;8.05;1.80;;;21.20;83.70;;;;;;4263542;27;20198;-68
2021/08/16 06:37:44;;;;;;;6.38;1.48;;;21.30;83.60;;;;;;4263443;27;20047;-68
2021/08/16 06:39:49;;;;;;;4.65;1.90;;;21.40;83.00;;;;;;4263662;27;20448;-75
2021/08/16 06:41:53;;;;;;;8.40;2.03;;;21.50;83.60;;;;;;4263409;27;20055;-72
2021/08/16 06:43:57;;;;;;;8.55;2.72;;;21.60;82.60;;;;;;4263658;27;20051;-72
2021/08/16 06:46:00;;;;;;;7.75;2.33;;;21.70;82.20;;;;;;4263734;27;20069;-69
2021/08/16 06:48:04;;;;;;;11.48;2.58;;;21.60;82.30;;;;;;4263524;27;20058;-70
2021/08/16 06:50:08;;;;;;;9.82;2.00;;;21.70;82.30;;;;;;4263645;27;20080;-69
2021/08/16 06:52:11;;;;;;;9.83;2.17;;;21.70;82.40;;;;;;4263580;27;20490;-68
2021/08/16 06:54:14;;;;;;;6.75;1.77;;;21.70;82.60;;;;;;4263387;27;20111;-69
2021/08/16 06:56:34;;;;;;;7.65;2.00;;;21.60;82.90;;;;;;4263715;27;20051;-69
2021/08/16 06:58:37;;;;;;;6.32;2.15;;;21.60;83.30;;;;;;4263441;27;20115;-69
2021/08/16 07:00:41;;;;;;;8.55;2.25;;;21.70;82.80;;;;;;4263596;27;20050;-68
2021/08/16 07:02:44;;;;;;;8.52;2.10;;;21.80;82.10;;;;;;4263311;27;20058;-68
2021/08/16 07:04:48;;;;;;;6.32;1.70;;;21.80;82.60;;;;;;4245046;27;20084;-68
2021/08/16 07:06:51;;;;;;;11.10;2.28;;;21.80;82.20;;;;;;4263430;27;20062;-68
2021/08/16 07:08:54;;;;;;;9.10;1.80;;;21.80;82.30;;;;;;4263541;27;20047;-67
2021/08/16 07:10:56;;;;;;;8.43;1.83;;;21.70;82.60;;;;;;4263236;27;20434;-68
2021/08/16 07:13:01;;;;;;;10.38;2.38;;;21.70;82.90;;;;;;4263427;27;20107;-73
2021/08/16 07:15:05;;;;;;;12.75;1.85;;;21.50;83.80;;;;;;4263420;27;20063;-68
2021/08/16 07:17:08;;;;;;;8.50;1.67;;;21.50;84.40;;;;;;4263087;27;20130;-72
2021/08/16 07:19:11;;;;;;;7.30;2.20;;;21.60;83.50;;;;;;4263313;27;20645;-72
2021/08/16 07:21:14;;;;;;;6.78;2.35;;;21.60;83.80;;;;;;4263335;27;20050;-68
2021/08/16 07:23:17;;;;;;;9.32;1.63;;;21.60;84.60;;;;;;4263394;27;20047;-73
2021/08/16 07:25:20;;;;;;;10.90;1.83;;;21.30;86.20;;;;;;4263269;27;20050;-68
2021/08/16 07:27:23;;;;;;;5.68;1.45;;;21.30;85.60;;;;;;4263187;27;20103;-68
2021/08/16 07:29:29;;;;;;;9.95;1.63;;;21.40;85.50;;;;;;4262771;27;20515;-67
2021/08/16 07:31:32;;;;;;;9.05;1.90;;;21.20;85.80;;;;;;4262822;27;20050;-68
2021/08/16 07:33:36;;;;;;;5.13;1.40;;;21.50;85.70;;;;;;4263001;27;20057;-68
2021/08/16 07:35:39;;;;;;;8.05;1.65;;;21.60;84.70;;;;;;4262974;27;20065;-68
2021/08/16 07:37:42;;;;;;;12.90;1.83;;;21.70;84.10;;;;;;4262969;27;20054;-68
2021/08/16 07:39:45;;;;;;;5.50;1.27;;;21.70;85.20;;;;;;4262951;27;20058;-68
2021/08/16 07:41:48;;;;;;;4.88;1.48;;;21.70;85.20;;;;;;4262968;27;20077;-68
2021/08/16 07:43:51;;;;;;;6.65;1.40;;;21.50;86.00;;;;;;4244785;27;20081;-68
2021/08/16 07:45:55;;;;;;;7.82;1.60;;;21.40;86.60;;;;;;4262996;27;20492;-68
2021/08/16 07:47:58;;;;;;;6.78;1.52;;;21.40;86.80;;;;;;4263496;27;20057;-70
2021/08/16 07:50:02;;;;;;;7.60;1.60;;;21.40;89.00;;;;;;4266407;27;20051;-69
2021/08/16 07:52:05;;;;;;;7.70;1.50;;;21.50;88.40;;;;;;4266718;27;20066;-69
2021/08/16 07:54:08;;;;;;;6.35;1.15;;;21.60;88.90;;;;;;4266259;27;20494;-68
2021/08/16 07:56:11;;;;;;;5.32;1.75;;;21.70;87.80;;;;;;4266550;27;20049;-69
2021/08/16 07:58:14;;;;;;;4.63;1.52;;;21.80;87.70;;;;;;4266296;27;20054;-69
2021/08/16 08:00:18;;;;;;;7.68;1.20;;;21.80;88.10;;;;;;4266550;27;20061;-68
2021/08/16 08:02:23;;;;;;;6.45;1.38;;;21.90;87.90;;;;;;4266645;27;20066;-68
2021/08/16 08:04:26;;;;;;;8.85;1.25;;;22.00;87.10;;;;;;4266610;27;20112;-70
2021/08/16 08:06:29;;;;;;;8.10;1.63;;;22.10;86.10;;;;;;4266212;27;20055;-71
2021/08/16 08:08:32;;;;;;;5.68;1.63;;;22.20;85.80;;;;;;4266282;27;20069;-69
2021/08/16 08:10:35;;;;;;;4.47;1.20;;;22.20;85.90;;;;;;4266318;27;20046;-68
2021/08/16 08:12:39;;;;;;;8.10;1.90;;;22.20;85.90;;;;;;4266117;27;20054;-68
2021/08/16 08:14:42;;;;;;;4.35;1.35;;;22.30;85.80;;;;;;4265960;27;20050;-70
2021/08/16 08:16:45;;;;;;;8.48;1.55;;;22.30;86.10;;;;;;4266024;27;20060;-68
2021/08/16 08:18:50;;;;;;;5.80;1.83;;;22.30;85.70;;;;;;4265618;27;20103;-69
2021/08/16 08:20:53;;;;;;;8.18;1.77;;;22.30;85.80;;;;;;4265648;27;20107;-72
2021/08/16 08:22:56;;;;;;;5.45;1.90;;;22.30;85.20;;;;;;4265935;27;20061;-68
2021/08/16 08:24:59;;;;;;;7.85;1.80;;;22.40;85.30;;;;;;4266201;27;20631;-69
2021/08/16 08:27:02;;;;;;;5.45;1.50;;;22.40;85.50;;;;;;4266076;27;20448;-70
2021/08/16 08:29:05;;;;;;;10.10;1.50;;;22.50;84.90;;;;;;4265849;27;20142;-68
2021/08/16 08:31:08;;;;;;;5.07;1.70;;;22.60;84.90;;;;;;4266064;27;20568;-69
2021/08/16 08:33:15;;;;;;;3.75;1.33;;;22.60;85.20;;;;;;4265949;27;20058;-68
2021/08/16 08:35:20;;;;;;;6.28;1.55;;;22.60;84.60;;;;;;4265755;27;20058;-71
2021/08/16 08:37:23;;;;;;;3.65;1.67;;;22.60;84.80;;;;;;4265903;27;20046;-70
2021/08/16 08:39:26;;;;;;;4.93;1.48;;;22.50;84.90;;;;;;4265824;27;20050;-71
2021/08/16 08:41:31;;;;;;;4.95;1.70;;;22.60;84.60;;;;;;4265827;27;20490;-75
2021/08/16 08:43:35;;;;;;;;;;;22.60;84.90;;;;;;4265882;27;20050;-74
2021/08/16 08:45:40;;;;;;;5.10;1.55;;;22.50;85.30;;;;;;4265816;27;19919;-68
2021/08/16 08:47:45;;;;;;;5.60;1.80;;;22.60;84.90;;;;;;4265772;27;20046;-69
2021/08/16 08:49:49;;;;;;;5.10;1.50;;;22.50;85.60;;;;;;4265585;27;20054;-68
2021/08/16 08:51:53;;;;;;;10.63;1.88;;;22.50;85.90;;;;;;4265667;27;21256;-68
2021/08/16 08:53:57;;;;;;;5.40;1.33;;;22.60;85.10;;;;;;4265572;27;20095;-71
2021/08/16 08:56:20;;;;;;;6.28;1.63;;;22.60;84.80;;;;;;4265438;27;20053;-68
2021/08/16 08:58:23;;;;;;;4.50;1.50;;;22.60;84.70;;;;;;4265643;27;20116;-68
2021/08/16 09:00:26;;;;;;;6.82;1.60;;;22.70;84.80;;;;;;4264730;27;20062;-68
2021/08/16 09:02:29;;;;;;;5.63;1.52;;;22.70;85.20;;;;;;4265498;27;20054;-68
2021/08/16 09:04:32;;;;;;;6.97;1.42;;;22.80;85.00;;;;;;4265512;27;20058;-69
2021/08/16 09:06:40;;;;;;;12.45;1.42;;;22.80;84.60;;;;;;4265312;27;20371;-70
2021/08/16 09:08:50;;;;;;;6.10;1.48;;;22.90;84.10;;;;;;4265029;27;20053;-71
2021/08/16 09:11:06;;;;;;;5.35;1.42;;;22.90;84.90;;;;;;4265528;27;20111;-70
2021/08/16 09:13:08;;;;;;;;;;;22.90;85.20;;;;;;4265921;27;20051;-69
2021/08/16 09:15:16;;;;;;;5.43;1.70;;;22.90;87.20;;;;;;4265432;27;19919;-69
2021/08/16 09:17:27;;;;;;;5.20;1.40;;;22.60;88.60;;;;;;4265092;27;20410;-72
2021/08/16 09:19:30;;;;;;;7.30;1.70;;;22.60;89.80;;;;;;4264887;27;20054;-69
2021/08/16 09:21:36;;;;;;;7.43;2.03;;;22.50;90.60;;;;;;4264827;27;20057;-68
2021/08/16 09:23:47;;;;;;;15.70;1.80;;;22.50;90.50;;;;;;4264901;27;20111;-69
2021/08/16 09:25:53;;;;;;;8.13;1.60;;;22.50;90.70;;;;;;4264891;27;20054;-69
2021/08/16 09:27:57;;;;;;;7.05;1.80;;;22.60;91.60;;;;;;4264601;27;20058;-68
2021/08/16 09:30:00;;;;;;;3.60;1.45;;;22.60;92.10;;;;;;4264827;27;20061;-68
2021/08/16 09:32:05;;;;;;;4.78;1.48;;;22.60;91.50;;;;;;4264693;27;20051;-69
2021/08/16 09:34:08;;;;;;;9.15;1.60;;;22.80;91.30;;;;;;4264788;27;20059;-68
2021/08/16 09:36:11;;;;;;;4.95;1.58;;;22.80;92.10;;;;;;4264965;27;20050;-68
2021/08/16 09:38:14;;;;;;;3.90;1.40;;;23.00;91.20;;;;;;4264900;27;20073;-68
2021/08/16 09:40:19;;;;;;;3.50;1.17;;;23.10;91.00;;;;;;4264524;27;20058;-67
2021/08/16 09:42:22;;;;;;;4.95;1.60;;;23.10;91.10;;;;;;4264948;27;20077;-67
2021/08/16 09:44:26;;;;;;;6.53;1.48;;;23.20;91.10;;;;;;4266218;27;20174;-67
2021/08/16 09:46:29;;;;;;;2.80;1.38;;;23.30;91.40;;;;;;4264756;27;20050;-67
2021/08/16 09:48:32;;;;;;;6.35;1.75;;;23.40;91.10;;;;;;4246238;27;20081;-67
2021/08/16 09:50:38;;;;;;;4.13;1.70;;;23.30;91.10;;;;;;4264383;27;20050;-67
2021/08/16 09:52:43;;;;;;;5.32;1.50;;;23.40;91.40;;;;;;4264699;27;20104;-67
2021/08/16 09:54:47;;;;;;;2.50;1.38;;;23.30;91.50;;;;;;4264598;27;20061;-67
2021/08/16 09:56:55;;;;;;;2.33;1.50;;;23.20;91.10;;;;;;4264397;27;20066;-69
2021/08/16 09:58:58;;;;;;;4.70;1.40;;;23.30;92.10;;;;;;4264636;27;20051;-68
2021/08/16 10:01:03;;;;;;;1.88;1.30;;;23.50;91.10;;;;;;4264586;27;20395;-69
2021/08/16 10:03:08;;;;;;;2.90;1.60;;;23.40;92.30;;;;;;4264532;27;20055;-71
2021/08/16 10:05:11;;;;;;;4.65;1.80;;;23.40;92.10;;;;;;4264220;27;20051;-70
2021/08/16 10:07:18;;;;;;;3.95;1.50;;;23.30;91.70;;;;;;4264274;27;20546;-67
2021/08/16 10:09:24;;;;;;;5.22;1.90;;;23.30;90.70;;;;;;4264298;27;20122;-68
2021/08/16 10:11:29;;;;;;;5.85;2.20;;;23.20;91.20;;;;;;4263270;27;20058;-69
2021/08/16 10:13:35;;;;;;;4.28;1.65;;;23.10;91.60;;;;;;4264191;27;20120;-68
2021/08/16 10:15:41;;;;;;;3.58;1.90;;;23.10;91.70;;;;;;4264257;27;20069;-71
2021/08/16 10:17:46;;;;;;;2.72;1.75;;;23.20;91.70;;;;;;4264245;27;20112;-68
2021/08/16 10:19:52;;;;;;;2.83;1.70;;;23.30;91.70;;;;;;4263856;27;20119;-73
2021/08/16 10:21:59;;;;;;;3.22;1.65;;;23.20;91.90;;;;;;4245932;27;20047;-69
2021/08/16 10:24:03;;;;;;;3.63;1.70;;;23.30;91.50;;;;;;4263839;27;20603;-70
2021/08/16 10:26:06;;;;;;;7.78;3.80;;;23.40;91.80;;;;;;4263626;27;20061;-70
2021/08/16 10:28:09;;;;;;;100.28;51.05;;;23.40;91.50;;;;;;4263380;27;20054;-67
2021/08/16 10:30:15;;;;;;;10.63;5.32;;;23.40;90.70;;;;;;4263701;27;20120;-67
2021/08/16 10:32:20;;;;;;;3.05;1.67;;;23.50;90.80;;;;;;4263942;27;20062;-68
2021/08/16 10:34:27;;;;;;;3.87;1.80;;;23.60;90.50;;;;;;4264076;27;20111;-72
2021/08/16 10:36:31;;;;;;;2.72;1.58;;;23.70;89.80;;;;;;4264044;27;20489;-67
2021/08/16 10:38:34;;;;;;;3.25;1.75;;;23.80;90.10;;;;;;4263785;27;20131;-71